sensor_id;sensor_type;location;lat;lon;timestamp;temperature;humidity
14188;DHT22;7175;51.978;5.330;2023-04-07T00:02:20;8.60;99.90
14188;DHT22;7175;51.978;5.330;2023-04-07T00:04:49;8.60;99.90
14188;DHT22;7175;51.978;5.330;2023-04-07T00:07:18;8.60;99.90
14188;DHT22;7175;51.978;5.330;2023-04-07T00:09:46;8.60;99.90
14188;DHT22;7175;51.978;5.330;2023-04-07T00:12:15;8.60;99.90
14188;DHT22;7175;51.978;5.330;2023-04-07T00:14:44;8.60;99.90
14188;DHT22;7175;51.978;5.330;2023-04-07T00:17:13;8.60;99.90
14188;DHT22;7175;51.978;5.330;2023-04-07T00:19:41;8.60;99.90
14188;DHT22;7175;51.978;5.330;2023-04-07T00:22:10;8.60;99.90
14188;DHT22;7175;51.978;5.330;2023-04-07T00:24:38;8.60;99.90
14188;DHT22;7175;51.978;5.330;2023-04-07T00:27:08;8.60;99.90
14188;DHT22;7175;51.978;5.330;2023-04-07T00:29:36;8.70;99.90
14188;DHT22;7175;51.978;5.330;2023-04-07T00:32:07;8.70;99.90
14188;DHT22;7175;51.978;5.330;2023-04-07T00:34:36;8.70;99.90
14188;DHT22;7175;51.978;5.330;2023-04-07T00:37:04;8.60;99.90
14188;DHT22;7175;51.978;5.330;2023-04-07T00:39:33;8.60;99.90
14188;DHT22;7175;51.978;5.330;2023-04-07T00:42:02;8.60;99.90
14188;DHT22;7175;51.978;5.330;2023-04-07T00:44:31;8.60;99.90
14188;DHT22;7175;51.978;5.330;2023-04-07T00:47:00;8.60;99.90
14188;DHT22;7175;51.978;5.330;2023-04-07T00:49:30;8.60;99.90
14188;DHT22;7175;51.978;5.330;2023-04-07T00:51:59;8.60;99.90
14188;DHT22;7175;51.978;5.330;2023-04-07T00:54:29;8.60;99.90
14188;DHT22;7175;51.978;5.330;2023-04-07T00:56:57;8.60;99.90
14188;DHT22;7175;51.978;5.330;2023-04-07T00:59:28;8.60;99.90
14188;DHT22;7175;51.978;5.330;2023-04-07T01:02:02;8.60;99.90
14188;DHT22;7175;51.978;5.330;2023-04-07T01:04:38;8.60;99.90
14188;DHT22;7175;51.978;5.330;2023-04-07T01:07:15;8.60;99.90
14188;DHT22;7175;51.978;5.330;2023-04-07T01:09:47;8.60;99.90
14188;DHT22;7175;51.978;5.330;2023-04-07T01:12:24;8.50;99.90
14188;DHT22;7175;51.978;5.330;2023-04-07T01:14:59;8.60;99.90
14188;DHT22;7175;51.978;5.330;2023-04-07T01:17:28;8.60;99.90
14188;DHT22;7175;51.978;5.330;2023-04-07T01:20:01;8.60;99.90
14188;DHT22;7175;51.978;5.330;2023-04-07T01:22:33;8.60;99.90
14188;DHT22;7175;51.978;5.330;2023-04-07T01:25:34;8.60;99.90
14188;DHT22;7175;51.978;5.330;2023-04-07T01:28:14;8.60;99.90
14188;DHT22;7175;51.978;5.330;2023-04-07T01:30:53;8.60;99.90
14188;DHT22;7175;51.978;5.330;2023-04-07T01:33:24;8.60;99.90
14188;DHT22;7175;51.978;5.330;2023-04-07T01:35:56;8.60;99.90
14188;DHT22;7175;51.978;5.330;2023-04-07T01:38:26;8.60;99.90
14188;DHT22;7175;51.978;5.330;2023-04-07T01:40:56;8.60;99.90
14188;DHT22;7175;51.978;5.330;2023-04-07T01:43:26;8.60;99.90
14188;DHT22;7175;51.978;5.330;2023-04-07T01:45:57;8.60;99.90
14188;DHT22;7175;51.978;5.330;2023-04-07T01:48:26;8.50;99.90
14188;DHT22;7175;51.978;5.330;2023-04-07T01:50:55;8.60;99.90
14188;DHT22;7175;51.978;5.330;2023-04-07T01:53:24;8.60;99.90
14188;DHT22;7175;51.978;5.330;2023-04-07T01:55:53;8.60;99.90
14188;DHT22;7175;51.978;5.330;2023-04-07T01:58:22;8.60;99.90
14188;DHT22;7175;51.978;5.330;2023-04-07T02:00:51;8.60;99.90
14188;DHT22;7175;51.978;5.330;2023-04-07T02:03:23;8.60;99.90
14188;DHT22;7175;51.978;5.330;2023-04-07T02:05:54;8.60;99.90
14188;DHT22;7175;51.978;5.330;2023-04-07T02:08:26;8.60;99.90
14188;DHT22;7175;51.978;5.330;2023-04-07T02:11:00;8.60;99.90
14188;DHT22;7175;51.978;5.330;2023-04-07T02:13:30;8.60;99.90
14188;DHT22;7175;51.978;5.330;2023-04-07T02:16:00;8.60;99.90
14188;DHT22;7175;51.978;5.330;2023-04-07T02:18:31;8.60;99.90
14188;DHT22;7175;51.978;5.330;2023-04-07T02:21:00;8.60;99.90
14188;DHT22;7175;51.978;5.330;2023-04-07T02:23:29;8.60;99.90
14188;DHT22;7175;51.978;5.330;2023-04-07T02:25:58;8.60;99.90
14188;DHT22;7175;51.978;5.330;2023-04-07T02:28:26;8.60;99.90
14188;DHT22;7175;51.978;5.330;2023-04-07T02:30:54;8.60;99.90
14188;DHT22;7175;51.978;5.330;2023-04-07T02:33:23;8.60;99.90
14188;DHT22;7175;51.978;5.330;2023-04-07T02:35:53;8.60;99.90
14188;DHT22;7175;51.978;5.330;2023-04-07T02:38:21;8.60;99.90
14188;DHT22;7175;51.978;5.330;2023-04-07T02:40:50;8.60;99.90
14188;DHT22;7175;51.978;5.330;2023-04-07T02:43:19;8.60;99.90
14188;DHT22;7175;51.978;5.330;2023-04-07T02:45:48;8.60;99.90
14188;DHT22;7175;51.978;5.330;2023-04-07T02:48:16;8.60;99.90
14188;DHT22;7175;51.978;5.330;2023-04-07T02:50:45;8.60;99.90
14188;DHT22;7175;51.978;5.330;2023-04-07T02:53:15;8.60;99.90
14188;DHT22;7175;51.978;5.330;2023-04-07T02:55:44;8.50;99.90
14188;DHT22;7175;51.978;5.330;2023-04-07T02:58:13;8.50;99.90
14188;DHT22;7175;51.978;5.330;2023-04-07T03:00:41;8.50;99.90
14188;DHT22;7175;51.978;5.330;2023-04-07T03:03:10;8.50;99.90
14188;DHT22;7175;51.978;5.330;2023-04-07T03:05:38;8.50;99.90
14188;DHT22;7175;51.978;5.330;2023-04-07T03:08:07;8.60;99.90
14188;DHT22;7175;51.978;5.330;2023-04-07T03:10:39;8.60;99.90
14188;DHT22;7175;51.978;5.330;2023-04-07T03:13:08;8.50;99.90
14188;DHT22;7175;51.978;5.330;2023-04-07T03:15:36;8.50;99.90
14188;DHT22;7175;51.978;5.330;2023-04-07T03:18:05;8.60;99.90
14188;DHT22;7175;51.978;5.330;2023-04-07T03:20:33;8.50;99.90
14188;DHT22;7175;51.978;5.330;2023-04-07T03:23:01;8.50;99.90
14188;DHT22;7175;51.978;5.330;2023-04-07T03:25:30;8.50;99.90
14188;DHT22;7175;51.978;5.330;2023-04-07T03:28:00;8.50;99.90
14188;DHT22;7175;51.978;5.330;2023-04-07T03:30:28;8.50;99.90
14188;DHT22;7175;51.978;5.330;2023-04-07T03:32:57;8.50;99.90
14188;DHT22;7175;51.978;5.330;2023-04-07T03:35:25;8.50;99.90
14188;DHT22;7175;51.978;5.330;2023-04-07T03:37:54;8.60;99.90
14188;DHT22;7175;51.978;5.330;2023-04-07T03:40:22;8.50;99.90
14188;DHT22;7175;51.978;5.330;2023-04-07T03:42:50;8.60;99.90
14188;DHT22;7175;51.978;5.330;2023-04-07T03:45:20;8.50;99.90
14188;DHT22;7175;51.978;5.330;2023-04-07T03:47:49;8.50;99.90
14188;DHT22;7175;51.978;5.330;2023-04-07T03:50:17;8.50;99.90
14188;DHT22;7175;51.978;5.330;2023-04-07T03:52:46;8.50;99.90
14188;DHT22;7175;51.978;5.330;2023-04-07T03:55:15;8.50;99.90
14188;DHT22;7175;51.978;5.330;2023-04-07T03:57:43;8.50;99.90
14188;DHT22;7175;51.978;5.330;2023-04-07T04:00:12;8.50;99.90
14188;DHT22;7175;51.978;5.330;2023-04-07T04:02:42;8.50;99.90
14188;DHT22;7175;51.978;5.330;2023-04-07T04:05:11;8.50;99.90
14188;DHT22;7175;51.978;5.330;2023-04-07T04:07:39;8.50;99.90
14188;DHT22;7175;51.978;5.330;2023-04-07T04:10:08;8.50;99.90
14188;DHT22;7175;51.978;5.330;2023-04-07T04:12:37;8.50;99.90
14188;DHT22;7175;51.978;5.330;2023-04-07T04:15:08;8.50;99.90
14188;DHT22;7175;51.978;5.330;2023-04-07T04:17:37;8.40;99.90
14188;DHT22;7175;51.978;5.330;2023-04-07T04:20:08;8.50;99.90
14188;DHT22;7175;51.978;5.330;2023-04-07T04:22:36;8.50;99.90
14188;DHT22;7175;51.978;5.330;2023-04-07T04:25:05;8.50;99.90
14188;DHT22;7175;51.978;5.330;2023-04-07T04:27:34;8.50;99.90
14188;DHT22;7175;51.978;5.330;2023-04-07T04:30:04;8.50;99.90
14188;DHT22;7175;51.978;5.330;2023-04-07T04:32:34;8.40;99.90
14188;DHT22;7175;51.978;5.330;2023-04-07T04:35:03;8.40;99.90
14188;DHT22;7175;51.978;5.330;2023-04-07T04:37:33;8.50;99.90
14188;DHT22;7175;51.978;5.330;2023-04-07T04:40:02;8.50;99.90
14188;DHT22;7175;51.978;5.330;2023-04-07T04:42:34;8.50;99.90
14188;DHT22;7175;51.978;5.330;2023-04-07T04:45:04;8.40;99.90
14188;DHT22;7175;51.978;5.330;2023-04-07T04:47:32;8.40;99.90
14188;DHT22;7175;51.978;5.330;2023-04-07T04:50:01;8.50;99.90
14188;DHT22;7175;51.978;5.330;2023-04-07T04:52:29;8.50;99.90
14188;DHT22;7175;51.978;5.330;2023-04-07T04:54:59;8.50;99.90
14188;DHT22;7175;51.978;5.330;2023-04-07T04:57:28;8.50;99.90
14188;DHT22;7175;51.978;5.330;2023-04-07T04:59:57;8.40;99.90
14188;DHT22;7175;51.978;5.330;2023-04-07T05:02:25;8.50;99.90
14188;DHT22;7175;51.978;5.330;2023-04-07T05:04:54;8.50;99.90
14188;DHT22;7175;51.978;5.330;2023-04-07T05:07:22;8.40;99.90
14188;DHT22;7175;51.978;5.330;2023-04-07T05:09:52;8.40;99.90
14188;DHT22;7175;51.978;5.330;2023-04-07T05:12:22;8.40;99.90
14188;DHT22;7175;51.978;5.330;2023-04-07T05:14:50;8.50;99.90
14188;DHT22;7175;51.978;5.330;2023-04-07T05:17:19;8.40;99.90
14188;DHT22;7175;51.978;5.330;2023-04-07T05:19:47;8.50;99.90
14188;DHT22;7175;51.978;5.330;2023-04-07T05:22:16;8.50;99.90
14188;DHT22;7175;51.978;5.330;2023-04-07T05:24:44;8.50;99.90
14188;DHT22;7175;51.978;5.330;2023-04-07T05:27:13;8.50;99.90
14188;DHT22;7175;51.978;5.330;2023-04-07T05:29:43;8.50;99.90
14188;DHT22;7175;51.978;5.330;2023-04-07T05:32:11;8.50;99.90
14188;DHT22;7175;51.978;5.330;2023-04-07T05:34:40;8.50;99.90
14188;DHT22;7175;51.978;5.330;2023-04-07T05:37:08;8.50;99.90
14188;DHT22;7175;51.978;5.330;2023-04-07T05:39:37;8.50;99.90
14188;DHT22;7175;51.978;5.330;2023-04-07T05:42:05;8.50;99.90
14188;DHT22;7175;51.978;5.330;2023-04-07T05:44:34;8.50;99.90
14188;DHT22;7175;51.978;5.330;2023-04-07T05:47:03;8.50;99.90
14188;DHT22;7175;51.978;5.330;2023-04-07T05:49:35;8.50;99.90
14188;DHT22;7175;51.978;5.330;2023-04-07T05:52:04;8.50;99.90
14188;DHT22;7175;51.978;5.330;2023-04-07T05:54:33;8.60;99.90
14188;DHT22;7175;51.978;5.330;2023-04-07T05:57:02;8.60;99.90
14188;DHT22;7175;51.978;5.330;2023-04-07T05:59:31;8.60;99.90
14188;DHT22;7175;51.978;5.330;2023-04-07T06:01:59;8.60;99.90
14188;DHT22;7175;51.978;5.330;2023-04-07T06:04:29;8.60;99.90
14188;DHT22;7175;51.978;5.330;2023-04-07T06:07:00;8.60;99.90
14188;DHT22;7175;51.978;5.330;2023-04-07T06:09:28;8.60;99.90
14188;DHT22;7175;51.978;5.330;2023-04-07T06:11:57;8.70;99.90
14188;DHT22;7175;51.978;5.330;2023-04-07T06:14:27;8.70;99.90
14188;DHT22;7175;51.978;5.330;2023-04-07T06:16:55;8.70;99.90
14188;DHT22;7175;51.978;5.330;2023-04-07T06:19:24;8.70;99.90
14188;DHT22;7175;51.978;5.330;2023-04-07T06:21:54;8.80;99.90
14188;DHT22;7175;51.978;5.330;2023-04-07T06:24:23;8.80;99.90
14188;DHT22;7175;51.978;5.330;2023-04-07T06:26:52;8.80;99.90
14188;DHT22;7175;51.978;5.330;2023-04-07T06:29:22;8.80;99.90
14188;DHT22;7175;51.978;5.330;2023-04-07T06:31:50;8.90;99.90
14188;DHT22;7175;51.978;5.330;2023-04-07T06:34:19;8.90;99.90
14188;DHT22;7175;51.978;5.330;2023-04-07T06:36:47;8.90;99.90
14188;DHT22;7175;51.978;5.330;2023-04-07T06:39:17;8.90;99.90
14188;DHT22;7175;51.978;5.330;2023-04-07T06:41:48;9.00;99.90
14188;DHT22;7175;51.978;5.330;2023-04-07T06:44:17;8.90;99.90
14188;DHT22;7175;51.978;5.330;2023-04-07T06:46:45;8.90;99.90
14188;DHT22;7175;51.978;5.330;2023-04-07T06:49:16;8.90;99.90
14188;DHT22;7175;51.978;5.330;2023-04-07T06:51:44;9.00;99.90
14188;DHT22;7175;51.978;5.330;2023-04-07T06:54:13;9.00;99.90
14188;DHT22;7175;51.978;5.330;2023-04-07T06:56:45;9.00;99.90
14188;DHT22;7175;51.978;5.330;2023-04-07T06:59:14;9.00;99.90
14188;DHT22;7175;51.978;5.330;2023-04-07T07:01:43;9.10;99.90
14188;DHT22;7175;51.978;5.330;2023-04-07T07:04:12;9.10;99.90
14188;DHT22;7175;51.978;5.330;2023-04-07T07:06:41;9.10;99.90
14188;DHT22;7175;51.978;5.330;2023-04-07T07:09:10;9.20;99.90
14188;DHT22;7175;51.978;5.330;2023-04-07T07:11:38;9.20;99.90
14188;DHT22;7175;51.978;5.330;2023-04-07T07:14:08;9.30;99.90
14188;DHT22;7175;51.978;5.330;2023-04-07T07:16:37;9.30;99.90
14188;DHT22;7175;51.978;5.330;2023-04-07T07:19:05;9.30;99.90
14188;DHT22;7175;51.978;5.330;2023-04-07T07:21:34;9.30;99.90
14188;DHT22;7175;51.978;5.330;2023-04-07T07:24:03;9.30;99.90
14188;DHT22;7175;51.978;5.330;2023-04-07T07:26:31;9.30;99.90
14188;DHT22;7175;51.978;5.330;2023-04-07T07:29:00;9.40;99.90
14188;DHT22;7175;51.978;5.330;2023-04-07T07:31:30;9.40;99.90
14188;DHT22;7175;51.978;5.330;2023-04-07T07:33:58;9.40;99.90
14188;DHT22;7175;51.978;5.330;2023-04-07T07:36:27;9.50;99.90
14188;DHT22;7175;51.978;5.330;2023-04-07T07:38:56;9.50;99.90
14188;DHT22;7175;51.978;5.330;2023-04-07T07:41:24;9.50;99.90
14188;DHT22;7175;51.978;5.330;2023-04-07T07:43:53;9.50;99.90
14188;DHT22;7175;51.978;5.330;2023-04-07T07:46:22;9.50;99.90
14188;DHT22;7175;51.978;5.330;2023-04-07T07:48:53;9.50;99.90
14188;DHT22;7175;51.978;5.330;2023-04-07T07:51:22;9.50;99.90
14188;DHT22;7175;51.978;5.330;2023-04-07T07:53:50;9.60;99.90
14188;DHT22;7175;51.978;5.330;2023-04-07T07:56:19;9.60;99.90
14188;DHT22;7175;51.978;5.330;2023-04-07T07:58:47;9.60;99.90
14188;DHT22;7175;51.978;5.330;2023-04-07T08:01:16;9.70;99.90
14188;DHT22;7175;51.978;5.330;2023-04-07T08:03:44;9.70;99.90
14188;DHT22;7175;51.978;5.330;2023-04-07T08:06:16;9.80;99.90
14188;DHT22;7175;51.978;5.330;2023-04-07T08:08:45;10.00;99.90
14188;DHT22;7175;51.978;5.330;2023-04-07T08:11:14;10.10;99.90
14188;DHT22;7175;51.978;5.330;2023-04-07T08:13:43;10.10;99.90
14188;DHT22;7175;51.978;5.330;2023-04-07T08:16:13;10.10;99.90
14188;DHT22;7175;51.978;5.330;2023-04-07T08:18:43;10.10;99.90
14188;DHT22;7175;51.978;5.330;2023-04-07T08:21:12;10.10;99.90
14188;DHT22;7175;51.978;5.330;2023-04-07T08:23:42;10.10;99.90
14188;DHT22;7175;51.978;5.330;2023-04-07T08:26:11;10.10;99.90
14188;DHT22;7175;51.978;5.330;2023-04-07T08:28:39;10.00;99.90
14188;DHT22;7175;51.978;5.330;2023-04-07T08:31:08;10.00;99.90
14188;DHT22;7175;51.978;5.330;2023-04-07T08:33:37;10.00;99.90
14188;DHT22;7175;51.978;5.330;2023-04-07T08:36:06;10.00;99.90
14188;DHT22;7175;51.978;5.330;2023-04-07T08:38:34;10.10;99.90
14188;DHT22;7175;51.978;5.330;2023-04-07T08:41:07;10.10;99.90
14188;DHT22;7175;51.978;5.330;2023-04-07T08:43:38;10.10;99.90
14188;DHT22;7175;51.978;5.330;2023-04-07T08:46:08;10.10;99.90
14188;DHT22;7175;51.978;5.330;2023-04-07T08:48:38;10.10;99.90
14188;DHT22;7175;51.978;5.330;2023-04-07T08:51:09;10.20;99.90
14188;DHT22;7175;51.978;5.330;2023-04-07T08:53:49;10.20;99.90
14188;DHT22;7175;51.978;5.330;2023-04-07T08:56:20;10.10;99.90
14188;DHT22;7175;51.978;5.330;2023-04-07T08:58:50;10.10;99.90
14188;DHT22;7175;51.978;5.330;2023-04-07T09:01:20;10.00;99.90
14188;DHT22;7175;51.978;5.330;2023-04-07T09:03:48;10.00;99.90
14188;DHT22;7175;51.978;5.330;2023-04-07T09:06:18;10.00;99.90
14188;DHT22;7175;51.978;5.330;2023-04-07T09:08:47;10.10;99.90
14188;DHT22;7175;51.978;5.330;2023-04-07T09:11:16;10.20;99.90
14188;DHT22;7175;51.978;5.330;2023-04-07T09:13:46;10.20;99.90
14188;DHT22;7175;51.978;5.330;2023-04-07T09:16:17;10.30;99.90
14188;DHT22;7175;51.978;5.330;2023-04-07T09:18:46;10.30;99.90
14188;DHT22;7175;51.978;5.330;2023-04-07T09:21:15;10.30;99.90
14188;DHT22;7175;51.978;5.330;2023-04-07T09:23:44;10.40;99.90
14188;DHT22;7175;51.978;5.330;2023-04-07T09:26:21;10.40;99.90
14188;DHT22;7175;51.978;5.330;2023-04-07T09:28:54;10.40;99.90
14188;DHT22;7175;51.978;5.330;2023-04-07T09:31:23;10.50;99.90
14188;DHT22;7175;51.978;5.330;2023-04-07T09:34:23;10.60;99.90
14188;DHT22;7175;51.978;5.330;2023-04-07T09:36:51;10.70;99.90
14188;DHT22;7175;51.978;5.330;2023-04-07T09:39:20;10.60;99.90
14188;DHT22;7175;51.978;5.330;2023-04-07T09:41:49;10.60;99.90
14188;DHT22;7175;51.978;5.330;2023-04-07T09:44:19;10.60;99.90
14188;DHT22;7175;51.978;5.330;2023-04-07T09:46:50;10.70;99.90
14188;DHT22;7175;51.978;5.330;2023-04-07T09:49:18;10.70;99.90
14188;DHT22;7175;51.978;5.330;2023-04-07T09:51:54;10.80;99.90
14188;DHT22;7175;51.978;5.330;2023-04-07T09:54:34;10.90;99.90
14188;DHT22;7175;51.978;5.330;2023-04-07T09:57:04;11.00;99.90
14188;DHT22;7175;51.978;5.330;2023-04-07T09:59:36;10.90;99.90
14188;DHT22;7175;51.978;5.330;2023-04-07T10:02:06;10.90;99.90
14188;DHT22;7175;51.978;5.330;2023-04-07T10:04:37;10.90;99.90
14188;DHT22;7175;51.978;5.330;2023-04-07T10:07:06;10.80;99.90
14188;DHT22;7175;51.978;5.330;2023-04-07T10:09:35;10.70;99.90
14188;DHT22;7175;51.978;5.330;2023-04-07T10:12:04;10.80;99.90
14188;DHT22;7175;51.978;5.330;2023-04-07T10:14:35;10.70;99.90
14188;DHT22;7175;51.978;5.330;2023-04-07T10:17:06;10.70;99.90
14188;DHT22;7175;51.978;5.330;2023-04-07T10:19:36;10.80;99.90
14188;DHT22;7175;51.978;5.330;2023-04-07T10:22:05;10.80;99.90
14188;DHT22;7175;51.978;5.330;2023-04-07T10:24:43;10.70;99.90
14188;DHT22;7175;51.978;5.330;2023-04-07T10:27:18;10.70;99.90
14188;DHT22;7175;51.978;5.330;2023-04-07T10:29:51;10.70;99.90
14188;DHT22;7175;51.978;5.330;2023-04-07T10:32:20;10.70;99.90
14188;DHT22;7175;51.978;5.330;2023-04-07T10:34:55;10.70;99.90
14188;DHT22;7175;51.978;5.330;2023-04-07T10:37:25;10.90;99.90
14188;DHT22;7175;51.978;5.330;2023-04-07T10:40:28;10.90;99.90
14188;DHT22;7175;51.978;5.330;2023-04-07T10:42:58;11.10;99.90
14188;DHT22;7175;51.978;5.330;2023-04-07T10:45:53;11.00;99.90
14188;DHT22;7175;51.978;5.330;2023-04-07T10:48:23;11.00;99.90
14188;DHT22;7175;51.978;5.330;2023-04-07T10:51:16;11.00;99.90
14188;DHT22;7175;51.978;5.330;2023-04-07T10:54:18;10.90;99.90
14188;DHT22;7175;51.978;5.330;2023-04-07T10:57:15;10.70;99.90
14188;DHT22;7175;51.978;5.330;2023-04-07T11:00:15;10.70;99.90
14188;DHT22;7175;51.978;5.330;2023-04-07T11:02:46;10.70;99.90
14188;DHT22;7175;51.978;5.330;2023-04-07T11:05:21;10.70;99.90
14188;DHT22;7175;51.978;5.330;2023-04-07T11:07:52;10.70;99.90
14188;DHT22;7175;51.978;5.330;2023-04-07T11:10:26;10.70;99.90
14188;DHT22;7175;51.978;5.330;2023-04-07T11:13:00;10.70;99.90
14188;DHT22;7175;51.978;5.330;2023-04-07T11:15:29;10.70;99.90
14188;DHT22;7175;51.978;5.330;2023-04-07T11:18:10;10.80;99.90
14188;DHT22;7175;51.978;5.330;2023-04-07T11:20:44;10.90;99.90
14188;DHT22;7175;51.978;5.330;2023-04-07T11:23:14;11.00;99.90
14188;DHT22;7175;51.978;5.330;2023-04-07T11:25:46;11.10;99.90
14188;DHT22;7175;51.978;5.330;2023-04-07T11:28:16;11.00;99.90
14188;DHT22;7175;51.978;5.330;2023-04-07T11:30:47;10.90;99.90
14188;DHT22;7175;51.978;5.330;2023-04-07T11:33:20;10.80;99.90
14188;DHT22;7175;51.978;5.330;2023-04-07T11:35:52;10.90;99.90
14188;DHT22;7175;51.978;5.330;2023-04-07T11:38:23;10.80;99.90
14188;DHT22;7175;51.978;5.330;2023-04-07T11:40:52;10.80;99.90
14188;DHT22;7175;51.978;5.330;2023-04-07T11:43:23;10.90;99.90
14188;DHT22;7175;51.978;5.330;2023-04-07T11:46:07;11.00;99.90
14188;DHT22;7175;51.978;5.330;2023-04-07T11:48:39;11.00;99.90
14188;DHT22;7175;51.978;5.330;2023-04-07T11:51:15;11.10;99.90
14188;DHT22;7175;51.978;5.330;2023-04-07T11:53:45;11.20;99.90
14188;DHT22;7175;51.978;5.330;2023-04-07T11:56:16;11.30;99.90
14188;DHT22;7175;51.978;5.330;2023-04-07T11:58:48;11.40;99.90
14188;DHT22;7175;51.978;5.330;2023-04-07T12:01:19;11.40;99.90
14188;DHT22;7175;51.978;5.330;2023-04-07T12:03:58;11.50;99.90
14188;DHT22;7175;51.978;5.330;2023-04-07T12:06:29;11.60;99.90
14188;DHT22;7175;51.978;5.330;2023-04-07T12:09:01;11.70;99.90
14188;DHT22;7175;51.978;5.330;2023-04-07T12:11:30;11.80;99.90
14188;DHT22;7175;51.978;5.330;2023-04-07T12:13:59;11.80;99.90
14188;DHT22;7175;51.978;5.330;2023-04-07T12:16:28;11.80;99.90
14188;DHT22;7175;51.978;5.330;2023-04-07T12:18:58;11.50;99.90
14188;DHT22;7175;51.978;5.330;2023-04-07T12:21:26;11.50;99.90
14188;DHT22;7175;51.978;5.330;2023-04-07T12:23:54;11.50;99.90
14188;DHT22;7175;51.978;5.330;2023-04-07T12:26:23;11.50;99.90
14188;DHT22;7175;51.978;5.330;2023-04-07T12:28:52;11.50;99.90
14188;DHT22;7175;51.978;5.330;2023-04-07T12:31:21;11.50;99.90
14188;DHT22;7175;51.978;5.330;2023-04-07T12:33:50;11.50;99.90
14188;DHT22;7175;51.978;5.330;2023-04-07T12:36:20;11.40;99.90
14188;DHT22;7175;51.978;5.330;2023-04-07T12:38:48;11.30;99.90
14188;DHT22;7175;51.978;5.330;2023-04-07T12:41:17;11.40;99.90
14188;DHT22;7175;51.978;5.330;2023-04-07T12:43:45;11.40;99.90
14188;DHT22;7175;51.978;5.330;2023-04-07T12:46:14;11.40;99.90
14188;DHT22;7175;51.978;5.330;2023-04-07T12:48:43;11.40;99.90
14188;DHT22;7175;51.978;5.330;2023-04-07T12:51:11;11.40;99.90
14188;DHT22;7175;51.978;5.330;2023-04-07T12:53:41;11.50;99.90
14188;DHT22;7175;51.978;5.330;2023-04-07T12:56:10;11.60;99.90
14188;DHT22;7175;51.978;5.330;2023-04-07T12:58:39;11.70;99.90
14188;DHT22;7175;51.978;5.330;2023-04-07T13:01:07;11.70;99.90
14188;DHT22;7175;51.978;5.330;2023-04-07T13:03:36;11.70;99.90
14188;DHT22;7175;51.978;5.330;2023-04-07T13:06:05;11.70;99.90
14188;DHT22;7175;51.978;5.330;2023-04-07T13:08:33;11.70;99.90
14188;DHT22;7175;51.978;5.330;2023-04-07T13:11:04;11.70;99.90
14188;DHT22;7175;51.978;5.330;2023-04-07T13:13:32;11.70;99.90
14188;DHT22;7175;51.978;5.330;2023-04-07T13:16:01;11.70;99.90
14188;DHT22;7175;51.978;5.330;2023-04-07T13:18:30;11.60;99.90
14188;DHT22;7175;51.978;5.330;2023-04-07T13:20:59;11.60;99.90
14188;DHT22;7175;51.978;5.330;2023-04-07T13:23:30;11.60;99.90
14188;DHT22;7175;51.978;5.330;2023-04-07T13:26:10;11.60;99.90
14188;DHT22;7175;51.978;5.330;2023-04-07T13:28:39;11.60;99.90
14188;DHT22;7175;51.978;5.330;2023-04-07T13:31:08;11.70;99.90
14188;DHT22;7175;51.978;5.330;2023-04-07T13:33:52;11.60;99.90
14188;DHT22;7175;51.978;5.330;2023-04-07T13:36:25;11.60;99.90
14188;DHT22;7175;51.978;5.330;2023-04-07T13:38:54;11.60;99.90
14188;DHT22;7175;51.978;5.330;2023-04-07T13:41:25;11.50;99.90
14188;DHT22;7175;51.978;5.330;2023-04-07T13:43:53;11.50;99.90
14188;DHT22;7175;51.978;5.330;2023-04-07T13:46:23;11.40;99.90
14188;DHT22;7175;51.978;5.330;2023-04-07T13:48:55;11.40;99.90
14188;DHT22;7175;51.978;5.330;2023-04-07T13:51:23;11.40;99.90
14188;DHT22;7175;51.978;5.330;2023-04-07T13:53:52;11.40;99.90
14188;DHT22;7175;51.978;5.330;2023-04-07T13:56:21;11.30;99.90
14188;DHT22;7175;51.978;5.330;2023-04-07T13:58:53;11.30;99.90
14188;DHT22;7175;51.978;5.330;2023-04-07T14:01:22;11.30;99.90
14188;DHT22;7175;51.978;5.330;2023-04-07T14:03:52;11.40;99.90
14188;DHT22;7175;51.978;5.330;2023-04-07T14:06:21;11.40;99.90
14188;DHT22;7175;51.978;5.330;2023-04-07T14:08:50;11.40;99.90
14188;DHT22;7175;51.978;5.330;2023-04-07T14:11:19;11.40;99.90
14188;DHT22;7175;51.978;5.330;2023-04-07T14:13:48;11.40;99.90
14188;DHT22;7175;51.978;5.330;2023-04-07T14:16:19;11.50;99.90
14188;DHT22;7175;51.978;5.330;2023-04-07T14:18:47;11.50;99.90
14188;DHT22;7175;51.978;5.330;2023-04-07T14:21:17;11.50;99.90
14188;DHT22;7175;51.978;5.330;2023-04-07T14:23:46;11.50;99.90
14188;DHT22;7175;51.978;5.330;2023-04-07T14:26:14;11.50;99.90
14188;DHT22;7175;51.978;5.330;2023-04-07T14:28:43;11.50;99.90
14188;DHT22;7175;51.978;5.330;2023-04-07T14:31:12;11.50;99.90
14188;DHT22;7175;51.978;5.330;2023-04-07T14:33:43;11.50;99.90
14188;DHT22;7175;51.978;5.330;2023-04-07T14:36:13;11.60;99.90
14188;DHT22;7175;51.978;5.330;2023-04-07T14:38:43;11.60;99.90
14188;DHT22;7175;51.978;5.330;2023-04-07T14:41:11;11.60;99.90
14188;DHT22;7175;51.978;5.330;2023-04-07T14:43:40;11.70;99.90
14188;DHT22;7175;51.978;5.330;2023-04-07T14:46:08;11.70;99.90
14188;DHT22;7175;51.978;5.330;2023-04-07T14:48:38;11.60;99.90
14188;DHT22;7175;51.978;5.330;2023-04-07T14:51:11;11.60;99.90
14188;DHT22;7175;51.978;5.330;2023-04-07T14:53:40;11.60;99.90
14188;DHT22;7175;51.978;5.330;2023-04-07T14:56:09;11.60;99.90
14188;DHT22;7175;51.978;5.330;2023-04-07T14:58:38;11.60;99.90
14188;DHT22;7175;51.978;5.330;2023-04-07T15:01:06;11.70;99.90
14188;DHT22;7175;51.978;5.330;2023-04-07T15:03:35;11.60;99.90
14188;DHT22;7175;51.978;5.330;2023-04-07T15:06:07;11.50;99.90
14188;DHT22;7175;51.978;5.330;2023-04-07T15:08:37;11.50;99.90
14188;DHT22;7175;51.978;5.330;2023-04-07T15:11:06;11.50;99.90
14188;DHT22;7175;51.978;5.330;2023-04-07T15:13:35;11.60;99.90
14188;DHT22;7175;51.978;5.330;2023-04-07T15:16:08;11.60;99.90
14188;DHT22;7175;51.978;5.330;2023-04-07T15:18:38;11.60;99.90
14188;DHT22;7175;51.978;5.330;2023-04-07T15:21:07;11.60;99.90
14188;DHT22;7175;51.978;5.330;2023-04-07T15:23:37;11.40;99.90
14188;DHT22;7175;51.978;5.330;2023-04-07T15:26:08;11.40;99.90
14188;DHT22;7175;51.978;5.330;2023-04-07T15:28:37;11.40;99.90
14188;DHT22;7175;51.978;5.330;2023-04-07T15:31:06;11.30;99.90
14188;DHT22;7175;51.978;5.330;2023-04-07T15:33:37;11.30;99.90
14188;DHT22;7175;51.978;5.330;2023-04-07T15:36:07;11.30;99.90
14188;DHT22;7175;51.978;5.330;2023-04-07T15:38:36;11.20;99.90
14188;DHT22;7175;51.978;5.330;2023-04-07T15:41:06;11.20;99.90
14188;DHT22;7175;51.978;5.330;2023-04-07T15:43:35;11.10;99.90
14188;DHT22;7175;51.978;5.330;2023-04-07T15:46:04;11.10;99.90
14188;DHT22;7175;51.978;5.330;2023-04-07T15:48:32;11.10;99.90
14188;DHT22;7175;51.978;5.330;2023-04-07T15:51:00;11.00;99.90
14188;DHT22;7175;51.978;5.330;2023-04-07T15:53:29;11.10;99.90
14188;DHT22;7175;51.978;5.330;2023-04-07T15:55:59;11.00;99.90
14188;DHT22;7175;51.978;5.330;2023-04-07T15:58:27;11.00;99.90
14188;DHT22;7175;51.978;5.330;2023-04-07T16:00:56;11.00;99.90
14188;DHT22;7175;51.978;5.330;2023-04-07T16:03:25;10.90;99.90
14188;DHT22;7175;51.978;5.330;2023-04-07T16:05:55;10.90;99.90
14188;DHT22;7175;51.978;5.330;2023-04-07T16:08:23;10.80;99.90
14188;DHT22;7175;51.978;5.330;2023-04-07T16:10:52;10.70;99.90
14188;DHT22;7175;51.978;5.330;2023-04-07T16:13:22;10.60;99.90
14188;DHT22;7175;51.978;5.330;2023-04-07T16:15:54;10.60;99.90